createdAt,value
2018-07-10T00:04:17.404Z,91.70
2018-07-10T00:06:59.732Z,91.60
2018-07-10T00:14:00.904Z,91.60
2018-07-10T00:16:28.019Z,92.00
2018-07-10T00:18:55.822Z,92.70
2018-07-10T00:21:22.948Z,93.00
2018-07-10T00:23:50.300Z,93.20
2018-07-10T00:26:17.452Z,93.50
2018-07-10T00:28:45.227Z,93.70
2018-07-10T00:31:12.852Z,93.80
2018-07-10T00:33:40.182Z,94.00
2018-07-10T00:38:45.899Z,93.90
2018-07-10T00:41:13.008Z,93.60
2018-07-10T00:46:07.176Z,93.80
2018-07-10T00:48:34.323Z,94.60
2018-07-10T00:51:01.382Z,95.20
2018-07-10T00:53:28.516Z,95.80
2018-07-10T00:55:55.617Z,96.10
2018-07-10T00:58:22.862Z,96.50
2018-07-10T01:00:50.931Z,96.80
2018-07-10T01:03:19.142Z,97.00
2018-07-10T01:05:46.197Z,97.00
2018-07-10T01:08:13.293Z,96.90
2018-07-10T01:10:40.959Z,96.60
2018-07-10T01:13:08.006Z,96.80
2018-07-10T01:15:35.064Z,96.40
2018-07-10T01:20:29.325Z,96.20
2018-07-10T01:22:56.502Z,96.20
2018-07-10T01:25:24.352Z,96.20
2018-07-10T01:27:51.553Z,96.30
2018-07-10T01:30:18.632Z,96.40
2018-07-10T01:32:45.742Z,96.40
2018-07-10T01:35:12.884Z,96.70
2018-07-10T01:37:40.122Z,97.00
2018-07-10T01:40:07.204Z,96.80
2018-07-10T01:42:34.272Z,96.80
2018-07-10T01:45:02.133Z,96.80
2018-07-10T01:47:29.383Z,96.80
2018-07-10T01:52:23.920Z,97.00
2018-07-10T01:54:51.001Z,97.10
2018-07-10T01:57:18.112Z,97.30
2018-07-10T01:59:45.248Z,97.30
2018-07-10T02:02:12.384Z,97.60
2018-07-10T02:07:06.500Z,97.00
2018-07-10T02:09:33.686Z,96.70
2018-07-10T02:12:00.768Z,97.00
2018-07-10T02:14:27.854Z,97.40
2018-07-10T02:16:54.930Z,97.40
2018-07-10T02:19:22.033Z,96.90
2018-07-10T02:21:49.105Z,96.40
2018-07-10T02:24:20.028Z,96.60
2018-07-10T02:26:47.188Z,97.00
2018-07-10T02:29:14.317Z,97.10
2018-07-10T02:31:41.384Z,97.00
2018-07-10T02:34:08.972Z,97.40
2018-07-10T02:36:36.320Z,97.50
2018-07-10T02:39:03.792Z,97.40
2018-07-10T02:41:30.871Z,97.10
2018-07-10T02:44:01.188Z,97.50
2018-07-10T02:46:29.648Z,97.90
2018-07-10T02:49:03.404Z,98.20
2018-07-10T02:51:30.767Z,98.40
2018-07-10T02:53:57.920Z,99.20
2018-07-10T02:56:25.048Z,99.70
2018-07-10T02:58:52.419Z,99.70
2018-07-10T03:01:19.770Z,99.80
2018-07-10T03:03:47.851Z,99.70
2018-07-10T03:06:15.121Z,99.80
2018-07-10T03:08:42.406Z,99.90
2018-07-10T03:11:09.648Z,99.90
2018-07-10T03:16:05.287Z,99.90
2018-07-10T03:18:32.631Z,99.90
2018-07-10T03:20:59.824Z,99.90
2018-07-10T03:23:27.184Z,99.90
2018-07-10T03:25:54.334Z,99.90
2018-07-10T03:28:21.629Z,99.90
2018-07-10T03:30:48.736Z,99.90
2018-07-10T03:33:15.820Z,99.90
2018-07-10T03:35:42.891Z,99.90
2018-07-10T03:38:09.976Z,99.90
2018-07-10T03:40:37.097Z,99.90
2018-07-10T03:45:31.546Z,99.20
2018-07-10T03:47:58.777Z,98.80
2018-07-10T03:50:26.696Z,98.90
2018-07-10T03:52:54.017Z,99.00
2018-07-10T03:55:21.101Z,99.10
2018-07-10T03:57:51.729Z,99.00
2018-07-10T04:00:18.796Z,99.20
2018-07-10T04:02:48.832Z,99.40
2018-07-10T04:05:18.587Z,99.90
2018-07-10T04:07:46.316Z,99.90
2018-07-10T04:12:46.106Z,99.90
2018-07-10T04:15:13.225Z,99.90
2018-07-10T04:17:41.888Z,99.90
2018-07-10T04:20:09.295Z,99.90
2018-07-10T04:22:37.999Z,99.90
2018-07-10T04:25:05.131Z,99.90
2018-07-10T04:27:40.710Z,99.90
2018-07-10T04:30:16.335Z,99.90
2018-07-10T04:32:43.419Z,99.90
2018-07-10T04:35:12.467Z,99.90
2018-07-10T04:37:40.582Z,99.90
2018-07-10T04:40:08.016Z,99.90
2018-07-10T04:42:46.061Z,99.90
2018-07-10T04:45:15.689Z,99.90
2018-07-10T04:50:13.228Z,99.90
2018-07-10T04:52:44.079Z,99.90
2018-07-10T04:55:12.273Z,99.90
2018-07-10T04:57:59.056Z,99.10
2018-07-10T05:00:27.097Z,98.50
2018-07-10T05:02:54.709Z,98.40
2018-07-10T05:05:22.707Z,98.70
2018-07-10T05:10:18.020Z,99.20
2018-07-10T05:12:45.396Z,98.90
2018-07-10T05:17:40.689Z,98.50
2018-07-10T05:20:07.748Z,98.40
2018-07-10T05:22:34.813Z,98.10
2018-07-10T05:25:01.957Z,98.10
2018-07-10T05:27:29.201Z,98.10
2018-07-10T05:29:56.420Z,98.00
2018-07-10T05:32:27.597Z,98.10
2018-07-10T05:34:55.163Z,97.90
2018-07-10T05:37:30.960Z,97.90
2018-07-10T05:40:00.158Z,98.20
2018-07-10T05:42:27.232Z,98.30
2018-07-10T05:44:54.364Z,98.00
2018-07-10T05:47:22.866Z,98.30
2018-07-10T05:49:53.004Z,97.80
2018-07-10T05:52:20.155Z,97.80
2018-07-10T05:54:47.238Z,98.10
2018-07-10T05:57:14.602Z,98.40
2018-07-10T06:02:08.996Z,97.90
2018-07-10T06:04:37.630Z,98.10
2018-07-10T06:07:04.688Z,97.70
2018-07-10T06:09:31.799Z,97.80
2018-07-10T06:11:58.872Z,97.70
2018-07-10T06:14:26.240Z,97.50
2018-07-10T06:16:53.298Z,97.50
2018-07-10T06:19:20.514Z,98.10
2018-07-10T06:21:48.416Z,98.10
2018-07-10T06:24:21.127Z,97.70
2018-07-10T06:26:59.201Z,97.60
2018-07-10T06:29:29.336Z,97.40
2018-07-10T06:31:56.648Z,97.30
2018-07-10T06:37:02.834Z,97.60
2018-07-10T06:39:29.948Z,97.30
2018-07-10T06:41:59.109Z,96.80
2018-07-10T06:44:26.332Z,96.80
2018-07-10T06:49:27.396Z,96.70
2018-07-10T06:54:29.139Z,97.40
2018-07-10T06:56:56.472Z,96.60
2018-07-10T06:59:24.304Z,96.70
2018-07-10T07:04:18.540Z,95.90
2018-07-10T07:06:45.649Z,95.90
2018-07-10T07:14:07.041Z,95.10
2018-07-10T07:16:34.156Z,95.00
2018-07-10T07:19:01.281Z,95.20
2018-07-10T07:21:28.319Z,95.10
2018-07-10T07:23:55.546Z,95.00
2018-07-10T07:26:22.700Z,94.10
2018-07-10T07:28:49.844Z,93.60
2018-07-10T07:31:17.455Z,93.50
2018-07-10T07:33:44.605Z,92.40
2018-07-10T07:36:11.720Z,91.70
2018-07-10T07:38:38.899Z,92.20
2018-07-10T07:41:06.010Z,92.00
2018-07-10T07:43:34.213Z,91.80
2018-07-10T07:46:01.284Z,91.30
2018-07-10T07:48:28.487Z,91.30
2018-07-10T07:50:55.640Z,90.50
2018-07-10T07:53:22.769Z,90.80
2018-07-10T07:55:49.944Z,90.50
2018-07-10T07:58:17.110Z,90.30
2018-07-10T08:00:44.233Z,89.00
2018-07-10T08:03:11.479Z,87.90
2018-07-10T08:05:39.793Z,87.10
2018-07-10T08:08:06.979Z,87.70
2018-07-10T08:10:34.181Z,87.90
2018-07-10T08:13:01.537Z,86.90
2018-07-10T08:15:29.305Z,86.00
2018-07-10T08:17:56.499Z,85.50
2018-07-10T08:20:23.962Z,85.50
2018-07-10T08:22:51.288Z,84.90
2018-07-10T08:25:19.349Z,85.20
2018-07-10T08:27:46.433Z,84.80
2018-07-10T08:30:13.577Z,85.00
2018-07-10T08:32:40.939Z,83.20
2018-07-10T08:35:08.059Z,83.10
2018-07-10T08:37:35.281Z,82.10
2018-07-10T08:40:03.394Z,81.10
2018-07-10T08:42:31.094Z,81.20
2018-07-10T08:44:58.244Z,80.90
2018-07-10T08:47:25.445Z,80.90
2018-07-10T08:49:53.649Z,80.00
2018-07-10T08:52:20.828Z,78.80
2018-07-10T08:54:48.377Z,78.50
2018-07-10T08:57:15.548Z,78.40
2018-07-10T08:59:42.694Z,78.20
2018-07-10T09:02:09.925Z,78.30
2018-07-10T09:04:37.048Z,77.70
2018-07-10T09:07:04.622Z,76.30
2018-07-10T09:09:31.811Z,76.50
2018-07-10T09:14:26.272Z,75.60
2018-07-10T09:16:53.432Z,76.40
2018-07-10T09:19:29.287Z,76.00
2018-07-10T09:22:06.680Z,76.20
2018-07-10T09:24:35.592Z,73.50
2018-07-10T09:27:04.644Z,74.00
2018-07-10T09:31:59.069Z,72.80
2018-07-10T09:34:26.298Z,73.60
2018-07-10T09:36:53.519Z,72.90
2018-07-10T09:39:21.300Z,74.00
2018-07-10T09:41:49.041Z,73.20
2018-07-10T09:44:16.298Z,74.00
2018-07-10T09:46:43.443Z,73.30
2018-07-10T09:49:10.634Z,74.10
2018-07-10T09:51:40.038Z,74.20
2018-07-10T09:54:07.177Z,73.60
2018-07-10T09:56:34.380Z,72.40
2018-07-10T09:59:01.507Z,72.80
2018-07-10T10:04:00.628Z,71.40
2018-07-10T10:08:54.836Z,70.90
2018-07-10T10:11:21.998Z,71.80
2018-07-10T10:13:49.248Z,71.70
2018-07-10T10:16:16.422Z,71.90
2018-07-10T10:18:43.565Z,71.40
2018-07-10T10:21:10.717Z,72.00
2018-07-10T10:23:37.875Z,70.10
2018-07-10T10:26:04.984Z,70.20
2018-07-10T10:28:32.104Z,71.50
2018-07-10T10:30:59.336Z,71.00
2018-07-10T10:33:26.482Z,71.30
2018-07-10T10:35:53.619Z,72.30
2018-07-10T10:38:21.751Z,73.60
2018-07-10T10:40:48.894Z,75.10
2018-07-10T10:43:15.993Z,77.40
2018-07-10T10:45:44.141Z,79.30
2018-07-10T10:48:12.726Z,80.00
2018-07-10T10:50:42.615Z,80.50
2018-07-10T10:53:09.762Z,80.00
2018-07-10T10:55:36.860Z,79.40
2018-07-10T11:14:47.536Z,75.40
2018-07-10T11:17:28.100Z,75.00
2018-07-10T11:22:28.375Z,75.70
2018-07-10T11:25:01.513Z,73.20
2018-07-10T11:28:06.190Z,73.10
2018-07-10T11:30:33.579Z,72.90
2018-07-10T11:33:01.922Z,72.70
2018-07-10T11:35:29.232Z,73.20
2018-07-10T11:37:57.997Z,73.40
2018-07-10T11:40:25.482Z,71.30
2018-07-10T11:42:52.574Z,70.70
2018-07-10T11:47:47.047Z,70.00
2018-07-10T11:50:14.300Z,70.60
2018-07-10T11:52:41.626Z,70.50
2018-07-10T11:55:08.708Z,71.30
2018-07-10T11:57:35.935Z,71.90
2018-07-10T12:00:03.317Z,71.60
2018-07-10T12:02:38.984Z,71.90
2018-07-10T12:05:06.135Z,72.20
2018-07-10T12:07:35.117Z,72.00
2018-07-10T12:10:13.730Z,70.50
2018-07-10T12:12:40.911Z,69.90
2018-07-10T12:15:08.012Z,67.20
2018-07-10T12:17:35.202Z,65.90
2018-07-10T12:20:02.553Z,64.80
2018-07-10T12:22:29.881Z,64.60
2018-07-10T12:24:57.016Z,64.60
2018-07-10T12:27:24.215Z,63.50
2018-07-10T12:29:51.738Z,62.20
2018-07-10T12:32:18.903Z,62.40
2018-07-10T12:34:46.131Z,62.30
2018-07-10T12:37:13.441Z,60.60
2018-07-10T12:39:41.197Z,60.70
2018-07-10T12:42:08.266Z,60.60
2018-07-10T12:44:35.381Z,60.80
2018-07-10T12:47:02.482Z,61.60
2018-07-10T12:49:29.735Z,62.20
2018-07-10T12:51:56.902Z,62.60
2018-07-10T12:54:24.041Z,63.70
2018-07-10T12:56:51.122Z,62.60
2018-07-10T12:59:18.551Z,63.80
2018-07-10T13:04:12.778Z,64.40
2018-07-10T13:06:39.878Z,62.60
2018-07-10T13:09:07.096Z,63.00
2018-07-10T13:11:34.204Z,62.00
2018-07-10T13:14:01.298Z,60.50
2018-07-10T13:16:28.357Z,61.20
2018-07-10T13:18:55.508Z,61.00
2018-07-10T13:21:22.737Z,60.70
2018-07-10T13:23:49.834Z,60.80
2018-07-10T13:26:17.404Z,61.10
2018-07-10T13:28:44.540Z,61.90
2018-07-10T13:31:11.641Z,63.20
2018-07-10T13:33:38.734Z,63.70
2018-07-10T13:36:05.823Z,64.90
2018-07-10T13:38:33.121Z,66.00
2018-07-10T13:41:01.202Z,66.60
2018-07-10T13:43:28.372Z,67.90
2018-07-10T13:45:55.468Z,67.80
2018-07-10T13:48:22.588Z,67.80
2018-07-10T13:50:49.702Z,67.00
2018-07-10T13:53:16.841Z,68.50
2018-07-10T13:55:43.968Z,69.10
2018-07-10T14:00:42.048Z,70.60
2018-07-10T14:03:09.353Z,71.10
2018-07-10T14:05:36.415Z,71.40
2018-07-10T14:08:03.578Z,72.10
2018-07-10T14:10:30.670Z,72.00
2018-07-10T14:12:59.017Z,72.10
2018-07-10T14:15:26.246Z,73.00
2018-07-10T14:17:53.629Z,73.10
2018-07-10T14:20:21.637Z,73.10
2018-07-10T14:27:43.193Z,74.60
2018-07-10T14:30:10.624Z,75.00
2018-07-10T14:32:37.961Z,75.10
2018-07-10T14:35:05.328Z,74.90
2018-07-10T14:54:15.437Z,72.50
2018-07-10T14:59:10.190Z,73.60
2018-07-10T15:01:38.167Z,73.30
2018-07-10T15:04:05.574Z,73.80
2018-07-10T15:06:33.101Z,74.00
2018-07-10T15:09:00.797Z,74.40
2018-07-10T15:11:28.022Z,74.20
2018-07-10T15:14:05.216Z,75.40
2018-07-10T15:16:38.035Z,75.00
2018-07-10T15:21:32.446Z,75.30
2018-07-10T15:24:00.604Z,75.10
2018-07-10T15:26:27.703Z,75.30
2018-07-10T15:28:55.220Z,75.40
2018-07-10T15:31:22.568Z,75.20
2018-07-10T15:33:49.993Z,75.30
2018-07-10T15:36:17.177Z,75.80
2018-07-10T15:38:44.940Z,75.70
2018-07-10T15:41:12.478Z,76.00
2018-07-10T15:43:39.936Z,75.70
2018-07-10T15:48:34.324Z,76.30
2018-07-10T15:51:01.639Z,76.70
2018-07-10T15:53:28.833Z,77.40
2018-07-10T15:55:55.973Z,77.50
2018-07-10T15:58:23.101Z,77.20
2018-07-10T16:00:50.592Z,76.80
2018-07-10T16:03:17.855Z,77.10
2018-07-10T16:05:45.324Z,77.30
2018-07-10T16:08:14.952Z,77.70
2018-07-10T16:10:44.467Z,78.00
2018-07-10T16:13:11.785Z,78.10
2018-07-10T16:15:38.966Z,78.00
2018-07-10T16:18:06.135Z,78.20
2018-07-10T16:20:37.097Z,78.60
2018-07-10T16:23:04.673Z,78.80
2018-07-10T16:25:32.857Z,78.40
2018-07-10T16:28:09.721Z,78.40
2018-07-10T16:33:06.107Z,78.80
2018-07-10T16:35:33.570Z,79.00
2018-07-10T16:38:01.534Z,78.80
2018-07-10T16:40:28.814Z,78.90
2018-07-10T16:42:56.727Z,78.80
2018-07-10T16:45:30.648Z,79.00
2018-07-10T16:48:10.575Z,78.90
2018-07-10T16:50:40.517Z,79.00
2018-07-10T16:53:09.056Z,79.30
2018-07-10T16:55:36.416Z,78.60
2018-07-10T16:58:03.787Z,78.90
2018-07-10T17:17:15.159Z,80.80
2018-07-10T17:19:43.212Z,80.40
2018-07-10T17:22:10.801Z,80.60
2018-07-10T17:24:38.226Z,80.90
2018-07-10T17:27:05.849Z,80.90
2018-07-10T17:36:54.636Z,83.80
2018-07-10T17:39:21.780Z,84.60
2018-07-10T17:41:48.976Z,85.70
2018-07-10T17:44:16.167Z,87.00
2018-07-10T17:46:43.303Z,88.00
2018-07-10T17:49:10.506Z,88.70
2018-07-10T17:51:37.644Z,89.50
2018-07-10T17:54:05.594Z,90.40
2018-07-10T17:56:33.707Z,90.30
2018-07-10T17:59:03.392Z,90.10
2018-07-10T18:01:30.770Z,89.50
2018-07-10T18:03:58.021Z,89.80
2018-07-10T18:06:25.354Z,89.50
2018-07-10T18:08:54.215Z,88.70
2018-07-10T18:11:21.453Z,88.80
2018-07-10T18:13:48.996Z,88.80
2018-07-10T18:16:16.192Z,88.20
2018-07-10T18:18:43.443Z,88.10
2018-07-10T18:21:10.615Z,86.90
2018-07-10T18:23:38.108Z,86.60
2018-07-10T18:26:05.413Z,85.00
2018-07-10T18:28:32.585Z,85.00
2018-07-10T18:30:59.844Z,85.40
2018-07-10T18:33:27.045Z,85.90
2018-07-10T18:35:54.247Z,86.70
2018-07-10T18:38:21.798Z,87.60
2018-07-10T18:40:49.118Z,88.00
2018-07-10T18:43:16.291Z,88.60
2018-07-10T18:45:43.578Z,89.30
2018-07-10T18:48:10.826Z,89.90
2018-07-10T18:50:38.219Z,90.20
2018-07-10T18:53:05.439Z,90.10
2018-07-10T18:55:32.613Z,90.00
2018-07-10T18:58:05.378Z,89.80
2018-07-10T19:19:45.624Z,92.40
2018-07-10T19:22:15.281Z,92.00
2018-07-10T19:24:42.995Z,92.30
2018-07-10T19:27:27.291Z,92.20
2018-07-10T19:29:56.073Z,92.10
2018-07-10T19:32:23.597Z,92.10
2018-07-10T19:34:55.161Z,92.60
2018-07-10T19:37:26.089Z,92.30
2018-07-10T19:39:53.768Z,92.50
2018-07-10T19:42:21.136Z,92.40
2018-07-10T19:44:49.847Z,92.70
2018-07-10T19:47:17.652Z,92.80
2018-07-10T19:49:46.933Z,92.70
2018-07-10T19:52:14.730Z,92.50
2018-07-10T19:54:43.365Z,92.90
2018-07-10T19:59:39.203Z,93.10
2018-07-10T20:02:06.845Z,93.10
2018-07-10T20:07:11.044Z,94.40
2018-07-10T20:10:16.635Z,95.30
2018-07-10T20:13:10.587Z,97.90
2018-07-10T20:15:55.830Z,98.80
2018-07-10T20:18:36.426Z,99.60
2018-07-10T20:21:18.649Z,99.70
2018-07-10T20:23:56.654Z,99.80
2018-07-10T20:28:36.627Z,99.90
2018-07-10T20:31:13.865Z,99.90
2018-07-10T20:36:18.605Z,99.90
2018-07-10T20:38:45.936Z,99.90
2018-07-10T20:41:13.267Z,99.90
2018-07-10T20:43:44.676Z,99.90
2018-07-10T20:46:14.271Z,99.90
2018-07-10T20:48:55.318Z,99.90
2018-07-10T20:51:31.072Z,99.90
2018-07-10T20:54:15.453Z,99.90
2018-07-10T20:57:04.133Z,99.90
2018-07-10T20:59:40.374Z,99.90
2018-07-10T21:02:22.029Z,99.90
2018-07-10T21:04:57.430Z,99.90
2018-07-10T21:07:30.898Z,99.90
2018-07-10T21:14:16.807Z,99.90
2018-07-10T21:16:53.852Z,99.90
2018-07-10T21:19:29.047Z,99.90
2018-07-10T21:22:04.576Z,99.90
2018-07-10T21:27:04.683Z,99.90
2018-07-10T21:29:43.330Z,99.90
2018-07-10T21:32:20.754Z,99.90
2018-07-10T21:34:49.192Z,99.90
2018-07-10T21:39:28.709Z,99.90
2018-07-10T21:42:07.428Z,99.90
2018-07-10T21:46:47.407Z,99.90
2018-07-10T21:49:49.235Z,99.90
2018-07-10T21:54:43.869Z,99.90
2018-07-10T21:57:13.406Z,99.90
2018-07-10T21:59:49.427Z,99.90
2018-07-10T22:02:17.201Z,99.90
2018-07-10T22:04:45.574Z,99.90
2018-07-10T22:07:13.974Z,99.90
2018-07-10T22:09:41.590Z,99.90
2018-07-10T22:12:10.300Z,99.90
2018-07-10T22:14:37.468Z,99.90
2018-07-10T22:17:05.694Z,99.90
2018-07-10T22:19:34.383Z,99.90
2018-07-10T22:22:01.438Z,99.90
2018-07-10T22:24:28.569Z,99.90
2018-07-10T22:26:56.505Z,99.90
2018-07-10T22:29:29.334Z,99.90
2018-07-10T22:31:58.204Z,99.90
2018-07-10T22:34:25.648Z,99.90
2018-07-10T22:36:52.964Z,99.90
2018-07-10T22:39:20.232Z,99.90
2018-07-10T22:44:14.532Z,99.90
2018-07-10T22:49:08.785Z,99.90
2018-07-10T22:51:35.923Z,99.90
2018-07-10T22:54:03.500Z,99.90
2018-07-10T22:56:31.796Z,99.90
2018-07-10T22:58:59.028Z,99.90
2018-07-10T23:01:26.184Z,99.90
2018-07-10T23:03:53.960Z,99.90
2018-07-10T23:06:21.083Z,99.90
2018-07-10T23:08:48.201Z,99.90
2018-07-10T23:11:15.209Z,99.90
2018-07-10T23:13:44.163Z,99.90
2018-07-10T23:16:11.339Z,99.90
2018-07-10T23:18:38.922Z,99.90
2018-07-10T23:21:06.024Z,99.90
2018-07-10T23:40:14.748Z,99.90
2018-07-10T23:42:41.803Z,99.90
2018-07-10T23:47:40.023Z,99.90
2018-07-10T23:50:20.100Z,99.90
2018-07-10T23:53:53.807Z,99.90
2018-07-10T23:56:21.256Z,99.90
2018-07-10T23:58:48.659Z,99.90
